Time;durP1;ratioP1;P1;durP2;ratioP2;P2;SDS_P1;SDS_P2;PMS_P1;PMS_P2;Temp;Humidity;BMP_temperature;BMP_pressure;BME280_temperature;BME280_humidity;BME280_pressure;Samples;Min_cycle;Max_cycle;Signal;HPM_P1;HPM_P2
2023/01/18 00:01:38;;;;;;;;;;;;;;;;;;;;;
2023/01/18 00:10:56;;;;;;;2.60;1.90;;;;;;;16.34;52.34;99153.09;4826309;29;20085;-82
2023/01/18 00:13:39;;;;;;;3.08;1.95;;;;;;;16.32;52.52;99145.34;4826400;29;20050;-82
2023/01/18 00:20:15;;;;;;;3.13;1.83;;;;;;;16.31;52.37;99143.66;4829080;29;20034;-82
2023/01/18 00:22:59;;;;;;;2.78;1.88;;;;;;;16.29;52.47;99140.25;4827858;29;20128;-82
2023/01/18 00:25:33;;;;;;;2.90;1.85;;;;;;;16.29;52.15;99142.84;4823617;29;20096;-82
2023/01/18 00:32:13;;;;;;;3.20;1.80;;;;;;;16.30;52.13;99149.72;4829694;29;20079;-82
2023/01/18 00:35:21;;;;;;;2.65;1.65;;;;;;;16.28;52.36;99146.34;4828693;29;20070;-82
2023/01/18 00:41:20;;;;;;;2.53;1.50;;;;;;;16.26;52.34;99135.16;4846433;29;20068;-82
2023/01/18 00:44:39;;;;;;;2.53;1.48;;;;;;;16.28;52.23;99140.31;4814555;29;20030;-82
2023/01/18 00:47:40;;;;;;;2.40;1.40;;;;;;;16.25;52.33;99129.13;4845685;29;20037;-81
2023/01/18 00:50:43;;;;;;;3.40;1.70;;;;;;;16.25;52.05;99130.88;4818583;29;20065;-82
2023/01/18 00:53:43;;;;;;;2.22;1.65;;;;;;;16.23;52.16;99135.25;4799649;29;20106;-82
2023/01/18 00:56:54;;;;;;;2.05;1.50;;;;;;;16.24;52.03;99140.41;4829250;29;20066;-82
2023/01/18 01:00:03;;;;;;;2.38;1.70;;;;;;;16.24;52.22;99143.00;4844112;29;20114;-82
2023/01/18 01:09:41;;;;;;;2.10;1.50;;;;;;;16.22;52.24;99142.19;4842784;29;20058;-82
2023/01/18 01:28:52;;;;;;;2.10;1.35;;;;;;;16.17;52.19;99141.47;4825713;29;20022;-82
2023/01/18 01:31:19;;;;;;;2.17;1.50;;;;;;;16.18;51.82;99144.94;4824960;29;20086;-82
2023/01/18 01:33:52;;;;;;;2.70;1.42;;;;;;;16.17;52.20;99143.22;4809107;29;20046;-81
2023/01/18 01:36:26;;;;;;;2.10;1.23;;;;;;;16.17;51.95;99146.66;4823545;29;20038;-81
2023/01/18 01:38:58;;;;;;;2.30;1.50;;;;;;;16.16;52.00;99142.38;4822077;29;20053;-81
2023/01/18 01:48:13;;;;;;;2.13;1.38;;;;;;;16.15;51.91;99148.47;4840884;29;20101;-81
2023/01/18 01:54:06;;;;;;;2.70;1.60;;;;;;;16.14;51.86;99148.53;4840796;29;20110;-81
2023/01/18 01:57:11;;;;;;;2.65;1.50;;;;;;;16.14;51.93;99148.53;4838981;29;20073;-81
2023/01/18 02:00:02;;;;;;;2.58;1.30;;;;;;;16.13;51.79;99149.41;4859961;29;20510;-82
2023/01/18 02:02:42;;;;;;;1.63;1.20;;;;;;;16.13;51.91;99152.84;4859113;29;20069;-81
2023/01/18 02:08:32;;;;;;;1.85;1.15;;;;;;;16.11;51.79;99152.03;4861537;29;20040;-82
2023/01/18 02:14:25;;;;;;;1.80;1.30;;;;;;;16.12;51.95;99152.91;4862661;29;20067;-82
2023/01/18 02:17:27;;;;;;;2.05;1.30;;;;;;;16.12;51.83;99160.69;4864437;29;20042;-82
2023/01/18 02:20:18;;;;;;;1.77;1.27;;;;;;;16.13;52.00;99154.59;4863583;29;20090;-81
2023/01/18 02:23:05;;;;;;;2.20;1.30;;;;;;;16.12;52.07;99152.91;4863052;29;20059;-81
2023/01/18 02:26:11;;;;;;;1.92;1.20;;;;;;;16.13;51.97;99155.44;4858522;29;20046;-82
2023/01/18 02:28:43;;;;;;;2.25;1.30;;;;;;;16.11;51.89;99154.63;4842563;29;20062;-82
2023/01/18 02:31:49;;;;;;;2.08;1.20;;;;;;;16.12;52.01;99156.34;4856885;29;20029;-82
2023/01/18 02:34:40;;;;;;;2.03;1.20;;;;;;;16.12;51.99;99158.94;4842238;29;20053;-82
2023/01/18 02:37:17;;;;;;;1.95;1.17;;;;;;;16.12;51.83;99164.13;4858167;29;20474;-82
2023/01/18 02:40:07;;;;;;;1.75;1.15;;;;;;;16.11;51.89;99161.56;4858145;29;20029;-82
2023/01/18 02:48:09;;;;;;;1.67;1.00;;;;;;;16.12;51.83;99173.66;4860442;29;20037;-82
2023/01/18 02:50:46;;;;;;;1.63;1.10;;;;;;;16.11;51.85;99170.19;4827126;29;20042;-82
2023/01/18 02:53:34;;;;;;;1.30;0.82;;;;;;;16.12;51.91;99165.88;4842510;29;20057;-82
2023/01/18 02:56:42;;;;;;;1.80;1.23;;;;;;;16.12;52.01;99177.09;4822348;29;20043;-82
2023/01/18 02:59:43;;;;;;;1.02;0.90;;;;;;;16.11;52.02;99174.53;4837620;29;20038;-82
2023/01/18 03:02:13;;;;;;;2.67;1.20;;;;;;;16.12;51.80;99165.88;4821928;29;20110;-82
2023/01/18 03:04:54;;;;;;;2.15;1.20;;;;;;;16.12;52.00;99171.06;4822205;29;20079;-82
2023/01/18 03:07:43;;;;;;;1.60;1.02;;;;;;;16.12;51.76;99177.09;4820094;29;20041;-82
2023/01/18 03:10:12;;;;;;;1.50;0.90;;;;;;;16.13;51.89;99178.78;4834857;29;20649;-82
2023/01/18 03:13:16;;;;;;;1.70;1.20;;;;;;;16.11;51.94;99175.38;4820114;29;20046;-82
2023/01/18 03:16:00;;;;;;;1.67;1.10;;;;;;;16.12;51.81;99179.69;4818198;29;20027;-82
2023/01/18 03:19:01;;;;;;;1.27;0.98;;;;;;;16.12;51.84;99182.28;4818501;29;20050;-82
2023/01/18 03:21:50;;;;;;;1.73;1.00;;;;;;;16.12;51.95;99171.91;4818543;29;20045;-82
2023/01/18 03:24:20;;;;;;;1.80;1.05;;;;;;;16.12;51.71;99169.31;4817486;29;20526;-82
2023/01/18 03:26:52;;;;;;;1.52;0.90;;;;;;;16.13;51.73;99181.38;4832940;29;20046;-82
2023/01/18 03:35:06;;;;;;;1.27;0.80;;;;;;;16.11;51.90;99180.56;4851905;29;20044;-82
2023/01/18 03:37:36;;;;;;;1.67;1.00;;;;;;;16.11;51.87;99180.56;4835372;29;20030;-82
2023/01/18 03:40:06;;;;;;;1.50;1.05;;;;;;;16.11;51.54;99183.16;4834252;29;20037;-80
2023/01/18 03:43:11;;;;;;;2.08;1.00;;;;;;;16.10;51.82;99184.09;4837369;29;20014;-83
2023/01/18 03:45:48;;;;;;;1.10;0.80;;;;;;;16.09;51.86;99181.53;4857939;29;20030;-81
2023/01/18 03:48:17;;;;;;;1.27;0.80;;;;;;;16.09;51.87;99185.00;4836512;29;20049;-80
2023/01/18 03:50:42;;;;;;;1.25;0.90;;;;;;;16.10;51.75;99184.09;4869147;29;20029;-81
2023/01/18 03:53:19;;;;;;;1.67;1.00;;;;;;;16.08;51.72;99183.28;4855562;29;20030;-81
2023/01/18 03:55:54;;;;;;;1.30;0.90;;;;;;;16.07;51.90;99185.91;4842426;29;20061;-81
2023/01/18 03:58:24;;;;;;;0.88;0.68;;;;;;;16.06;51.70;99192.00;4842713;29;20034;-81
2023/01/18 04:00:53;;;;;;;1.13;0.82;;;;;;;16.06;51.96;99192.84;4841915;29;20036;-81
2023/01/18 04:03:21;;;;;;;1.05;0.77;;;;;;;16.06;51.88;99198.03;4841248;29;20061;-81
2023/01/18 04:05:48;;;;;;;1.50;0.80;;;;;;;16.06;51.82;99200.63;4858219;29;20032;-81
2023/01/18 04:08:20;;;;;;;1.02;0.80;;;;;;;16.04;51.77;99198.06;4841869;29;20030;-81
2023/01/18 04:10:57;;;;;;;1.38;0.85;;;;;;;16.06;52.00;99202.38;4841814;29;20034;-81
2023/01/18 04:13:24;;;;;;;2.28;0.88;;;;;;;16.04;51.80;99211.06;4859119;29;20030;-81
2023/01/18 04:15:52;;;;;;;2.35;0.90;;;;;;;16.03;51.90;99201.59;4841040;29;20046;-81
2023/01/18 04:18:19;;;;;;;1.30;0.90;;;;;;;16.05;52.03;99204.13;4858156;29;20462;-81
2023/01/18 04:20:57;;;;;;;1.27;0.82;;;;;;;16.04;51.79;99205.84;4843935;29;20030;-81
2023/01/18 04:23:47;;;;;;;1.50;0.88;;;;;;;16.06;51.94;99208.41;4861357;29;20050;-81
2023/01/18 04:26:15;;;;;;;1.38;0.90;;;;;;;16.05;51.86;99201.53;4858961;29;20026;-81
2023/01/18 04:28:41;;;;;;;1.10;0.88;;;;;;;16.04;52.06;99200.66;4838740;29;20037;-81
2023/01/18 04:31:10;;;;;;;1.02;0.70;;;;;;;16.06;51.92;99203.22;4837519;29;20069;-81
2023/01/18 04:33:36;;;;;;;1.42;0.70;;;;;;;16.05;51.59;99201.53;4852866;29;20032;-81
2023/01/18 04:36:01;;;;;;;2.50;0.70;;;;;;;16.04;51.93;99205.84;4836872;29;20065;-80
2023/01/18 04:38:27;;;;;;;0.95;0.63;;;;;;;16.06;51.98;99212.78;4836554;29;20105;-81
2023/01/18 04:40:53;;;;;;;1.10;0.70;;;;;;;16.05;51.77;99217.13;4836705;29;20117;-80
2023/01/18 04:43:18;;;;;;;1.40;0.85;;;;;;;16.04;51.78;99216.25;4836709;29;20037;-80
2023/01/18 04:45:55;;;;;;;1.10;0.70;;;;;;;16.06;51.92;99215.34;4836821;29;20087;-80
2023/01/18 04:48:21;;;;;;;1.20;0.80;;;;;;;16.06;51.76;99218.81;4851823;29;20358;-81
2023/01/18 04:50:47;;;;;;;1.65;0.80;;;;;;;16.05;52.02;99214.50;4837400;29;20030;-80
2023/01/18 04:53:15;;;;;;;1.23;0.65;;;;;;;16.05;51.98;99209.31;4836987;29;20038;-80
2023/01/18 04:55:40;;;;;;;0.90;0.63;;;;;;;16.05;51.90;99217.13;4854298;29;20546;-80
2023/01/18 04:58:06;;;;;;;0.95;0.68;;;;;;;16.04;51.69;99213.66;4843427;29;20026;-81
2023/01/18 05:00:32;;;;;;;1.15;0.75;;;;;;;16.05;52.02;99217.13;4863160;29;20040;-81
2023/01/18 05:02:57;;;;;;;1.63;0.90;;;;;;;16.03;51.96;99218.91;4861162;29;20086;-81
2023/01/18 05:05:25;;;;;;;2.17;0.70;;;;;;;16.03;51.91;99218.91;4841360;29;20038;-80
2023/01/18 05:07:53;;;;;;;1.73;0.82;;;;;;;16.05;51.61;99217.13;4856667;29;20026;-81
2023/01/18 05:10:23;;;;;;;1.25;0.60;;;;;;;16.05;51.91;99219.72;4846556;29;20059;-82
2023/01/18 05:12:51;;;;;;;1.15;0.68;;;;;;;16.04;51.99;99212.81;4845997;29;20030;-81
2023/01/18 05:15:17;;;;;;;0.90;0.70;;;;;;;16.04;51.90;99210.22;4858545;29;20041;-81
2023/01/18 05:17:44;;;;;;;1.20;0.63;;;;;;;16.02;51.96;99220.63;4843882;29;20034;-80
2023/01/18 05:20:11;;;;;;;1.70;0.80;;;;;;;16.04;52.03;99224.03;4860554;29;20026;-81
2023/01/18 05:22:44;;;;;;;1.15;0.60;;;;;;;16.04;51.90;99223.19;4844510;29;20034;-82
2023/01/18 05:28:40;;;;;;;1.20;0.70;;;;;;;16.03;51.94;99224.09;4859373;29;20052;-81
2023/01/18 05:31:07;;;;;;;1.52;0.80;;;;;;;16.04;51.82;99225.78;4843595;29;20071;-81
2023/01/18 05:36:55;;;;;;;1.25;0.60;;;;;;;16.04;51.98;99223.19;4864791;29;20104;-82
2023/01/18 05:40:05;;;;;;;1.98;0.77;;;;;;;16.04;51.92;99237.00;4864415;29;20149;-82
2023/01/18 05:42:34;;;;;;;1.70;0.82;;;;;;;16.03;51.94;99235.31;4865144;29;20036;-81
2023/01/18 05:45:20;;;;;;;1.33;0.73;;;;;;;16.04;51.82;99242.19;4844750;29;20182;-81
2023/01/18 05:47:46;;;;;;;0.93;0.60;;;;;;;16.03;52.29;99235.31;4845299;29;20061;-81
2023/01/18 05:50:12;;;;;;;1.27;0.60;;;;;;;16.04;51.92;99244.78;4842492;29;20034;-81
2023/01/18 05:52:40;;;;;;;1.30;0.70;;;;;;;16.03;52.00;99243.09;4843092;29;20029;-82
2023/01/18 05:55:27;;;;;;;1.15;0.70;;;;;;;16.04;51.94;99251.72;4863950;29;20038;-81
2023/01/18 06:01:15;;;;;;;0.70;0.50;;;;;;;16.05;52.01;99253.44;4863629;29;20397;-81
2023/01/18 06:03:41;;;;;;;1.05;0.60;;;;;;;16.06;52.32;99251.69;4843814;29;20071;-81
2023/01/18 06:06:07;;;;;;;0.52;0.50;;;;;;;16.06;51.91;99252.53;4843851;29;20045;-81
2023/01/18 06:08:33;;;;;;;0.82;0.52;;;;;;;16.06;51.98;99249.94;4858859;29;20026;-81
2023/01/18 06:17:33;;;;;;;0.95;0.63;;;;;;;16.06;51.71;99251.69;4863409;29;20049;-80
2023/01/18 06:20:18;;;;;;;0.90;0.60;;;;;;;16.07;51.88;99264.63;4860465;29;20045;-81
2023/01/18 06:22:45;;;;;;;1.85;0.70;;;;;;;16.07;52.07;99264.63;4857778;29;20058;-80
2023/01/18 06:25:13;;;;;;;1.58;0.70;;;;;;;16.09;51.98;99259.38;4842507;29;20030;-81
2023/01/18 06:27:40;;;;;;;1.75;0.60;;;;;;;16.08;52.05;99261.13;4828585;29;20026;-82
2023/01/18 06:30:09;;;;;;;4.32;0.80;;;;;;;16.09;52.12;99264.56;4861353;29;20037;-81
2023/01/18 06:33:05;;;;;;;3.47;0.75;;;;;;;16.09;52.01;99274.94;4847539;29;20032;-82
2023/01/18 06:38:48;;;;;;;18.67;5.50;;;;;;;16.09;52.09;99274.94;4911750;23;20048;-80
2023/01/18 06:41:14;;;;;;;23.38;6.25;;;;;;;16.09;52.06;99283.59;4855205;29;20547;-79
2023/01/18 06:43:43;;;;;;;22.58;6.25;;;;;;;16.10;51.97;99289.63;4891427;29;20032;-84
2023/01/18 06:46:10;;;;;;;19.33;6.13;;;;;;;16.10;52.36;99282.69;4855959;29;20071;-78
2023/01/18 06:48:35;;;;;;;21.35;6.90;;;;;;;16.10;52.23;99281.84;4868301;29;20135;-79
2023/01/18 06:51:01;;;;;;;24.42;7.03;;;;;;;16.11;52.35;99281.78;4853974;29;20050;-79
2023/01/18 06:53:48;;;;;;;23.73;6.72;;;;;;;16.11;52.35;99292.16;4891298;29;20035;-80
2023/01/18 06:56:14;;;;;;;22.90;6.95;;;;;;;16.11;52.74;99280.94;4888495;29;20025;-82
2023/01/18 06:58:41;;;;;;;24.67;7.90;;;;;;;16.23;52.75;99285.78;4898226;29;20032;-81
2023/01/18 07:01:41;;;;;;;22.77;8.27;;;;;;;16.34;52.82;99293.28;4899143;29;20471;-82
2023/01/18 07:04:09;;;;;;;25.60;7.22;;;;;;;16.41;52.61;99297.38;4901891;29;20025;-82
2023/01/18 07:06:36;;;;;;;27.42;7.75;;;;;;;16.42;52.55;99299.94;4881255;29;20033;-81
2023/01/18 07:09:06;;;;;;;25.65;8.27;;;;;;;16.43;52.18;99299.03;4879485;29;20104;-81
2023/01/18 07:11:35;;;;;;;24.40;7.85;;;;;;;16.43;52.34;99312.03;4879418;29;20037;-81
2023/01/18 07:14:11;;;;;;;21.05;7.25;;;;;;;16.47;52.65;99322.34;4896081;29;20101;-81
2023/01/18 07:16:37;;;;;;;22.00;6.72;;;;;;;16.46;52.60;99321.47;4894116;29;20064;-81
2023/01/18 07:19:04;;;;;;;22.15;7.90;;;;;;;16.45;52.28;99312.81;4877249;29;20040;-81
2023/01/18 07:21:30;;;;;;;21.80;6.28;;;;;;;16.45;52.32;99320.63;4876622;29;20392;-81
2023/01/18 07:23:58;;;;;;;22.85;7.13;;;;;;;16.48;52.32;99329.22;4876078;29;20025;-81
2023/01/18 07:26:25;;;;;;;17.75;6.30;;;;;;;16.47;52.08;99325.78;4892815;29;20052;-81
2023/01/18 07:28:54;;;;;;;21.33;6.97;;;;;;;16.47;52.33;99323.19;4878155;29;20032;-80
2023/01/18 07:38:29;;;;;;;18.88;6.68;;;;;;;16.49;52.18;99334.38;5929228;23;20061;31
2023/01/18 07:47:21;;;;;;;14.98;5.45;;;;;;;16.50;52.25;99349.03;5460846;23;20068;-80
2023/01/18 07:49:46;;;;;;;15.07;5.60;;;;;;;16.53;52.04;99361.13;4886303;29;20048;-79
2023/01/18 07:52:11;;;;;;;15.77;5.05;;;;;;;16.54;51.97;99361.06;4879851;29;20527;-80
2023/01/18 07:54:37;;;;;;;13.65;5.40;;;;;;;16.55;52.08;99361.88;4875843;29;20037;-79
2023/01/18 07:57:21;;;;;;;16.33;5.63;;;;;;;16.54;51.87;99360.22;4865877;29;20039;-85
2023/01/18 07:59:48;;;;;;;16.25;5.20;;;;;;;16.54;51.93;99366.25;4880288;29;20029;-80
2023/01/18 08:02:14;;;;;;;17.45;5.50;;;;;;;16.55;51.93;99369.69;4890056;29;20044;-80
2023/01/18 08:04:40;;;;;;;13.82;5.40;;;;;;;16.55;51.96;99367.97;4874349;29;20029;-80
2023/01/18 08:07:07;;;;;;;13.20;4.45;;;;;;;16.58;51.81;99377.41;4877162;29;20024;-81
2023/01/18 08:09:34;;;;;;;11.40;4.68;;;;;;;16.56;51.80;99374.00;4909538;29;20032;-81
2023/01/18 08:12:00;;;;;;;10.90;4.28;;;;;;;16.58;51.98;99385.19;4893069;29;20428;-81
2023/01/18 08:14:26;;;;;;;11.48;4.50;;;;;;;16.59;51.95;99392.94;4892776;29;20096;-81
2023/01/18 08:16:53;;;;;;;11.40;4.55;;;;;;;16.59;51.57;99395.56;4893047;29;20078;-80
2023/01/18 08:19:21;;;;;;;12.18;4.47;;;;;;;16.60;51.83;99392.03;4909461;29;20056;-80
2023/01/18 08:21:46;;;;;;;9.77;3.67;;;;;;;16.60;51.73;99392.03;4876236;29;20535;-80
2023/01/18 08:24:12;;;;;;;10.68;4.35;;;;;;;16.62;51.61;99407.59;4861366;29;20127;-81
2023/01/18 08:26:38;;;;;;;9.50;4.15;;;;;;;16.62;51.47;99403.25;4907808;29;20029;-80
2023/01/18 08:29:03;;;;;;;12.30;3.90;;;;;;;16.63;51.38;99404.94;4875833;29;20036;-81
2023/01/18 08:31:29;;;;;;;8.73;3.80;;;;;;;16.64;51.19;99411.00;4891830;29;20127;-80
2023/01/18 08:33:55;;;;;;;12.13;3.90;;;;;;;16.65;51.33;99410.09;4891795;29;20025;-81
2023/01/18 08:36:23;;;;;;;9.30;4.00;;;;;;;16.67;51.52;99411.75;4860980;29;20480;-80
2023/01/18 08:38:55;;;;;;;7.78;3.60;;;;;;;16.72;51.22;99413.38;4891517;29;20039;-80
2023/01/18 08:41:27;;;;;;;9.57;3.60;;;;;;;16.77;51.02;99417.53;4892083;29;20383;-81
2023/01/18 08:43:55;;;;;;;9.30;3.80;;;;;;;16.77;51.17;99417.53;4887797;29;20029;-81
2023/01/18 08:46:21;;;;;;;7.70;3.50;;;;;;;16.75;51.21;99418.50;4859192;29;20053;-81
2023/01/18 08:48:52;;;;;;;7.95;3.53;;;;;;;16.74;51.22;99419.38;4874651;29;20112;-81
2023/01/18 08:51:18;;;;;;;8.00;3.58;;;;;;;16.71;51.13;99415.13;4874582;29;20033;-81
2023/01/18 08:53:48;;;;;;;8.65;3.55;;;;;;;16.72;50.95;99423.75;4873934;29;20511;-80
2023/01/18 08:56:14;;;;;;;7.13;3.20;;;;;;;16.73;51.04;99421.13;4889995;29;20548;-81
2023/01/18 08:58:42;;;;;;;6.97;3.22;;;;;;;16.74;50.91;99421.97;4891329;29;20061;-81
2023/01/18 09:01:09;;;;;;;5.88;3.20;;;;;;;16.77;51.02;99434.88;4874486;29;20140;-81
2023/01/18 09:03:36;;;;;;;6.10;3.00;;;;;;;16.79;50.70;99428.75;4890002;29;20481;-81
2023/01/18 09:06:04;;;;;;;7.50;3.55;;;;;;;16.79;50.90;99428.75;4873348;29;20040;-81
2023/01/18 09:08:30;;;;;;;6.50;2.97;;;;;;;16.78;50.66;99426.19;4889897;29;20021;-81
2023/01/18 09:11:04;;;;;;;7.85;2.97;;;;;;;16.77;50.83;99425.34;4873971;29;20029;-81
2023/01/18 09:13:31;;;;;;;5.22;2.70;;;;;;;16.78;50.76;99429.63;4875215;29;20039;-81
2023/01/18 09:16:07;;;;;;;6.07;2.83;;;;;;;16.80;50.74;99429.63;4874030;29;20096;-81
2023/01/18 09:18:41;;;;;;;5.55;2.83;;;;;;;16.79;51.17;99426.16;4891139;29;20033;-81
2023/01/18 09:21:11;;;;;;;6.85;2.45;;;;;;;16.80;50.77;99432.22;4874415;29;20120;-81
2023/01/18 09:23:42;;;;;;;5.97;2.50;;;;;;;16.81;50.85;99432.19;4890250;29;20069;-81
2023/01/18 09:26:15;;;;;;;5.32;2.58;;;;;;;16.82;50.59;99430.44;4873825;29;20163;-81
2023/01/18 09:28:48;;;;;;;4.38;2.35;;;;;;;16.80;50.70;99424.44;4875630;29;20032;-81
2023/01/18 09:31:14;;;;;;;7.53;2.60;;;;;;;16.80;50.42;99430.47;4891638;29;20037;-81
2023/01/18 09:33:41;;;;;;;8.48;2.40;;;;;;;16.82;50.76;99433.03;4891752;29;20152;-81
2023/01/18 09:36:09;;;;;;;4.78;2.10;;;;;;;16.83;50.57;99438.19;4874979;29;20044;-81
2023/01/18 09:38:37;;;;;;;4.03;2.35;;;;;;;16.84;50.24;99439.88;4893310;29;20092;-82
2023/01/18 09:41:07;;;;;;;5.90;2.50;;;;;;;16.83;50.82;99439.91;4881343;29;20040;-81
2023/01/18 09:43:42;;;;;;;5.60;2.30;;;;;;;16.81;50.44;99434.78;4867741;29;20078;-81
2023/01/18 09:46:20;;;;;;;4.13;2.15;;;;;;;16.84;50.67;99426.03;4883042;29;20025;-81
2023/01/18 09:48:59;;;;;;;5.20;2.40;;;;;;;16.84;50.73;99431.25;4876409;29;20056;-81
2023/01/18 09:51:52;;;;;;;4.68;2.45;;;;;;;16.86;50.42;99434.66;4876393;29;20040;-81
2023/01/18 09:54:44;;;;;;;3.78;2.13;;;;;;;16.85;50.57;99439.00;4876061;29;20093;-81
2023/01/18 09:57:52;;;;;;;3.65;1.90;;;;;;;16.87;50.40;99441.53;4876710;29;20033;-81
2023/01/18 10:00:23;;;;;;;3.45;1.80;;;;;;;16.88;50.26;99448.44;4876084;29;20033;-81
2023/01/18 10:02:55;;;;;;;4.60;2.20;;;;;;;16.88;50.55;99448.44;4861821;29;20041;-81
2023/01/18 10:05:27;;;;;;;3.90;1.90;;;;;;;16.89;50.16;99457.09;4892805;29;20123;-81
2023/01/18 10:08:06;;;;;;;3.92;2.03;;;;;;;16.90;50.51;99457.06;4845771;29;20040;-80
2023/01/18 10:10:56;;;;;;;3.33;1.90;;;;;;;16.89;50.27;99464.88;4884411;29;20107;-80
2023/01/18 10:13:40;;;;;;;3.33;1.92;;;;;;;16.90;50.47;99462.25;4872636;29;20033;-82
2023/01/18 10:16:22;;;;;;;3.55;2.00;;;;;;;16.91;50.30;99466.53;4872148;29;20092;-82
2023/01/18 10:18:52;;;;;;;5.25;1.88;;;;;;;16.91;50.24;99461.34;4846717;29;20489;-81
2023/01/18 10:21:40;;;;;;;3.45;1.90;;;;;;;16.94;50.32;99455.19;4874994;29;20036;-81
2023/01/18 10:24:30;;;;;;;4.32;1.98;;;;;;;17.01;50.48;99467.13;4889416;29;20024;-81
2023/01/18 10:27:26;;;;;;;3.00;1.60;;;;;;;17.02;50.24;99464.47;4875205;29;20036;-81
2023/01/18 10:30:10;;;;;;;3.50;1.73;;;;;;;17.06;50.13;99473.88;4886013;29;20036;-81
2023/01/18 10:32:37;;;;;;;3.33;1.70;;;;;;;17.08;50.17;99462.63;4902752;29;20073;-81
2023/01/18 10:35:38;;;;;;;2.75;1.65;;;;;;;17.10;50.14;99473.81;4879714;29;20033;-81
2023/01/18 10:38:11;;;;;;;2.60;1.63;;;;;;;17.12;50.18;99465.06;4901018;29;20033;-81
2023/01/18 10:40:41;;;;;;;3.10;1.33;;;;;;;17.12;50.02;99472.88;4883336;29;20025;-80
2023/01/18 10:43:16;;;;;;;2.88;1.60;;;;;;;17.13;49.88;99458.13;4883317;29;20036;-82
2023/01/18 10:45:43;;;;;;;2.88;1.60;;;;;;;17.16;50.00;99468.41;4881437;29;20032;-81
2023/01/18 10:48:16;;;;;;;2.45;1.50;;;;;;;17.18;49.68;99471.81;4893512;29;20060;-81
2023/01/18 10:50:46;;;;;;;3.95;1.45;;;;;;;17.18;49.89;99464.03;4875179;29;20076;-81
2023/01/18 10:53:19;;;;;;;3.15;1.60;;;;;;;17.16;49.76;99477.09;4875928;29;20499;-81
2023/01/18 10:55:58;;;;;;;2.75;1.40;;;;;;;17.17;49.72;99476.19;4876017;29;20036;-81
2023/01/18 10:58:44;;;;;;;3.00;1.38;;;;;;;17.17;49.90;99488.31;4893185;29;20037;-81
2023/01/18 11:01:35;;;;;;;2.60;1.33;;;;;;;17.17;49.78;99486.56;4893002;29;20108;-81
2023/01/18 11:04:18;;;;;;;2.80;1.50;;;;;;;17.18;49.73;99490.03;4890093;29;20029;-81
2023/01/18 11:06:49;;;;;;;;;;;;;;;17.21;49.87;99479.56;4874552;29;20064;-81
2023/01/18 11:09:34;;;;;;;3.03;1.38;;;;;;;17.22;49.67;99478.63;4873229;29;19916;-81
2023/01/18 11:12:36;;;;;;;2.50;1.33;;;;;;;17.21;49.72;99477.78;4890824;29;20017;-81
2023/01/18 11:15:17;;;;;;;3.13;1.60;;;;;;;17.22;49.73;99478.63;4882006;29;20029;-81
2023/01/18 11:17:49;;;;;;;2.63;1.33;;;;;;;17.24;49.80;99482.03;4883492;29;20029;-81
2023/01/18 11:20:15;;;;;;;2.00;1.08;;;;;;;17.25;49.48;99476.81;4896318;29;20088;-81
2023/01/18 11:23:03;;;;;;;3.10;1.30;;;;;;;17.26;49.57;99470.69;4878620;29;20036;-81
2023/01/18 11:25:48;;;;;;;2.75;1.40;;;;;;;17.25;49.38;99463.81;4876976;29;20396;-81
2023/01/18 11:28:30;;;;;;;1.63;1.05;;;;;;;17.28;49.58;99462.88;4875614;29;20032;-81
2023/01/18 11:31:20;;;;;;;2.10;1.27;;;;;;;17.32;49.41;99472.28;4874631;29;20547;-81
2023/01/18 11:33:52;;;;;;;3.35;1.20;;;;;;;17.31;49.35;99468.00;4891339;29;20033;-81
2023/01/18 11:36:32;;;;;;;3.17;1.13;;;;;;;17.31;49.65;99459.31;4874304;29;20049;-81
2023/01/18 11:39:24;;;;;;;2.33;1.00;;;;;;;17.32;49.47;99464.47;4873368;29;20049;-81
2023/01/18 11:41:50;;;;;;;2.42;1.20;;;;;;;17.31;49.27;99461.91;4890463;29;20032;-81
2023/01/18 11:44:26;;;;;;;1.85;1.20;;;;;;;17.32;49.22;99461.88;4890902;29;20021;-80
2023/01/18 11:46:56;;;;;;;2.35;1.05;;;;;;;17.31;49.71;99461.91;4874206;29;20036;-81
2023/01/18 11:49:42;;;;;;;1.83;1.00;;;;;;;17.32;49.18;99467.06;4871525;29;20182;-81
2023/01/18 11:52:44;;;;;;;2.47;1.17;;;;;;;17.34;49.39;99472.25;4871323;29;20237;-81
2023/01/18 11:55:31;;;;;;;2.10;1.10;;;;;;;17.37;49.20;99474.72;4871527;29;20033;-81
2023/01/18 11:58:00;;;;;;;2.05;1.00;;;;;;;17.37;49.26;99470.38;4872606;29;20068;-81
2023/01/18 12:00:35;;;;;;;2.03;1.08;;;;;;;17.39;49.42;99470.34;4871304;29;20056;-81
2023/01/18 12:03:44;;;;;;;1.92;0.95;;;;;;;17.39;49.32;99481.59;4872038;29;20038;-81
2023/01/18 12:06:47;;;;;;;1.48;0.85;;;;;;;17.40;49.34;99474.66;4875724;29;20032;-80
2023/01/18 12:10:00;;;;;;;5.30;1.02;;;;;;;17.40;49.28;99469.47;4879716;29;20026;-81
2023/01/18 12:15:52;;;;;;;2.65;1.30;;;;;;;17.46;49.39;99470.13;5324741;23;20072;-83
2023/01/18 12:18:56;;;;;;;2.92;1.25;;;;;;;17.47;49.59;99461.41;4904891;29;20404;-82
2023/01/18 12:22:08;;;;;;;3.35;1.13;;;;;;;17.51;49.64;99471.69;4878580;29;20064;-81
2023/01/18 12:25:12;;;;;;;1.92;1.00;;;;;;;17.51;49.62;99469.97;4867241;29;20026;-82
2023/01/18 12:28:16;;;;;;;2.05;1.17;;;;;;;17.50;49.72;99470.84;4882617;29;20026;-83
2023/01/18 12:41:34;;;;;;;1.95;1.25;;;;;;;17.51;49.51;99469.09;4984098;23;20064;-82
2023/01/18 12:44:38;;;;;;;3.67;1.10;;;;;;;17.50;49.57;99470.00;4884814;29;20044;-83
2023/01/18 12:47:46;;;;;;;2.40;1.20;;;;;;;17.48;49.67;99473.53;4884337;29;20040;-83
2023/01/18 12:50:46;;;;;;;1.98;0.90;;;;;;;17.51;49.36;99472.56;4884479;29;20469;-83
2023/01/18 12:54:12;;;;;;;4.07;1.10;;;;;;;17.51;49.48;99471.69;4883879;29;20009;-82
2023/01/18 12:57:13;;;;;;;2.15;1.10;;;;;;;17.50;49.79;99477.81;4844486;29;20029;-82
2023/01/18 13:40:13;;;;;;;1.70;0.90;;;;;;;17.50;49.76;99496.03;4921944;29;20064;-86
2023/01/18 13:42:39;;;;;;;1.20;0.77;;;;;;;17.49;49.53;99495.19;4901460;29;20041;-85
2023/01/18 13:45:25;;;;;;;0.98;0.60;;;;;;;17.50;49.77;99493.41;4899711;29;20037;-86
2023/01/18 13:48:07;;;;;;;1.35;0.77;;;;;;;17.53;49.73;99498.50;4886033;29;20021;-86
2023/01/18 14:32:54;;;;;;;1.48;0.60;;;;;;;17.53;49.48;99547.94;5120673;23;20071;-86
2023/01/18 14:39:16;;;;;;;1.20;0.60;;;;;;;17.53;49.53;99558.34;4920436;29;20024;-85
2023/01/18 14:42:19;;;;;;;1.50;0.60;;;;;;;17.52;49.50;99552.28;4903579;29;20044;-85
2023/01/18 14:44:54;;;;;;;1.60;0.73;;;;;;;17.51;49.54;99558.41;4904175;29;20024;-85
2023/01/18 14:47:46;;;;;;;1.20;0.77;;;;;;;17.52;49.38;99559.25;4871432;29;20037;-85
2023/01/18 14:50:49;;;;;;;1.92;0.77;;;;;;;17.53;49.45;99569.63;4870212;29;20117;-85
2023/01/18 14:54:03;;;;;;;1.90;0.77;;;;;;;17.53;49.49;99560.94;4829526;29;20049;-86
2023/01/18 14:59:40;;;;;;;2.10;0.70;;;;;;;17.53;49.61;99571.34;4826793;29;20050;-85
2023/01/18 15:02:37;;;;;;;1.40;0.60;;;;;;;17.53;49.46;99582.63;4810402;29;20046;-84
2023/01/18 15:08:43;;;;;;;1.42;0.57;;;;;;;17.56;49.42;99579.91;4829189;29;20060;-85
2023/01/18 15:11:48;;;;;;;1.65;0.63;;;;;;;17.54;49.25;99578.25;4842560;29;20026;-85
2023/01/18 15:15:03;;;;;;;1.02;0.55;;;;;;;17.56;49.48;99589.47;4841670;29;20043;-83
2023/01/18 15:21:20;;;;;;;1.80;0.70;;;;;;;17.53;49.39;99577.41;4825381;29;20046;-82
2023/01/18 15:24:12;;;;;;;0.88;0.60;;;;;;;17.54;49.56;99584.31;4842473;29;20533;-82
2023/01/18 15:26:55;;;;;;;1.23;0.70;;;;;;;17.55;49.39;99587.75;4865782;29;20094;-82
2023/01/18 15:29:26;;;;;;;1.15;0.40;;;;;;;17.55;49.45;99590.34;4860448;29;20018;-82
2023/01/18 15:32:31;;;;;;;1.15;0.55;;;;;;;17.56;49.42;99594.69;4842678;29;20434;-82
2023/01/18 15:35:20;;;;;;;1.08;0.63;;;;;;;17.58;49.36;99600.69;4813199;29;20042;-82
2023/01/18 15:38:01;;;;;;;1.75;0.55;;;;;;;17.56;49.40;99595.53;4806413;29;20099;-83
2023/01/18 15:40:39;;;;;;;1.52;0.60;;;;;;;17.58;49.26;99596.34;4791388;30;20051;-83
2023/01/18 15:43:24;;;;;;;1.50;0.63;;;;;;;17.58;49.20;99596.34;4790863;30;20044;-82
2023/01/18 15:45:55;;;;;;;1.02;0.52;;;;;;;17.58;49.22;99600.69;4792198;29;20035;-83
2023/01/18 15:48:25;;;;;;;2.05;0.50;;;;;;;17.58;49.27;99601.53;4807438;29;20039;-82
2023/01/18 15:51:11;;;;;;;0.77;0.50;;;;;;;17.58;49.08;99606.75;4795531;30;20077;-83
2023/01/18 15:53:54;;;;;;;1.17;0.60;;;;;;;17.58;49.27;99606.75;4812006;29;20042;-83
2023/01/18 15:56:51;;;;;;;1.05;0.55;;;;;;;17.59;49.45;99610.19;4812354;29;20085;-82
2023/01/18 15:59:37;;;;;;;1.88;0.52;;;;;;;17.59;49.26;99613.63;4777978;30;20030;-85